Nearby METAR Reports

 

KSJC - San Jose, California, USA
Distance from station: NO 14km
Uppdaterad: 2019-03-25 17:53
Genommulet
Genommulet
 Vind från calm
Vind: Vindstilla
Temperatur: 14°C
Daggpunkt: 6°C
Luftfuktighet: 59%
Barometer: 1020 hPa
Clouds: Genommulet
Visibility: 16 km
Cloud details: Few Clouds 823 m
Övervägande molnigt 1524 m
Genommulet 2743 m
2019/03/25 16:53 KSJC 251653Z 00000KT 10SM FEW027 BKN050 OVC090 14/06 A3012 RMK AO2 SLP199 T01440056
KNUQ - Moffett Nas/Mtn, California, USA
Distance from station: N 14km
Uppdaterad: 2019-03-25 16:56
Genommulet
Genommulet
 Vind från SSO
Vind: SSO 19 km/h
Temperatur: 13°C
Daggpunkt: 6°C
Luftfuktighet: 63%
Barometer: 1019 hPa
Clouds: Genommulet
Visibility: 16 km
Cloud details: Genommulet 2743 m
2019/03/25 15:56 KNUQ 251556Z 16010KT 10SM OVC090 13/06 A3009 RMK AO2 SLP190 T01330056 $
 
KPAO - Palo Alto, California, USA
Distance from station: NNV 23km
Uppdaterad: 2019-03-25 17:47
Övervägande molnigt
Övervägande molnigt
 Vind från OSO
Vind: OSO 9 km/h
Temperatur: 14°C
Daggpunkt: 4°C
Luftfuktighet: 51%
Barometer: 1019.6 hPa
Clouds: Övervägande molnigt
Visibility: 16 km
Cloud details: Few Clouds 914 m
Övervägande molnigt 3658 m
2019/03/25 16:47 KPAO 251647Z 12005KT 10SM FEW030 BKN120 14/04 A3011
KRHV - San Jose/Reid, California, USA
Distance from station: ONO 19km
Uppdaterad: 2019-03-25 16:47
Övervägande molnigt
Övervägande molnigt
 Vind från SSO
Vind: SSO 19 km/h
Temperatur: 14°C
Daggpunkt: 5°C
Luftfuktighet: 55%
Barometer: 1018.3 hPa
Clouds: Övervägande molnigt
Visibility: 16 km
Cloud details: Delvis molnigt 1676 m
Övervägande molnigt 3048 m
2019/03/25 15:47 KRHV 251547Z 15010KT 10SM SCT055 BKN100 14/05 A3007
 
KOAK - Oakland, California, USA
Distance from station: NNV 50km
Uppdaterad: 2019-03-25 17:53
Genommulet
Genommulet
 Vind från S
Vind: S 39 km/h
Temperatur: 15°C
Daggpunkt: 6°C
Luftfuktighet: 55%
Barometer: 1019.3 hPa
Clouds: Genommulet
Visibility: 16 km
Cloud details: Övervägande molnigt 1372 m
Övervägande molnigt 1524 m
Genommulet 3048 m
2019/03/25 16:53 KOAK 251653Z 19021KT 10SM BKN045 BKN050 OVC100 15/06 A3010 RMK AO2 PK WND 18028/1648 SLP193 T01500056
KSQL - San Carlos Airpo, California, USA
Distance from station: NV 34km
Uppdaterad: 2019-03-25 17:47
Genommulet
Genommulet
 Vind från SO
Vind: SO 17 km/h, Vindby: 28 km/h
Temperatur: 14°C
Daggpunkt: 4°C
Luftfuktighet: 51%
Barometer: 1019.3 hPa
Clouds: Genommulet
Visibility: 16 km
Cloud details: Övervägande molnigt 1280 m
Genommulet 1524 m
2019/03/25 16:47 KSQL 251647Z 14009G15KT 10SM BKN042 OVC050 14/04 A3010
 
KSFO - San Francisco, California, USA
Distance from station: NV 49km
Uppdaterad: 2019-03-25 16:56
Genommulet
Genommulet
 Vind från SSO
Vind: SSO 28 km/h
Temperatur: 13°C
Daggpunkt: 3°C
Luftfuktighet: 51%
Barometer: 1018.3 hPa
Clouds: Genommulet
Visibility: 16 km
Cloud details: Övervägande molnigt 1341 m
Genommulet 5486 m
2019/03/25 15:56 KSFO 251556Z 16015KT 10SM BKN044 OVC180 13/03 A3007 RMK AO2 SLP183 T01280033
KE16 - San Martin, California, USA
Distance from station: OSO 43km
Uppdaterad: 2019-03-21 01:15
NOT Current
Klart
Klart
 Vind från SSV
Vind: SSV 22 km/h
Temperatur: 15°C
Daggpunkt: 5°C
Luftfuktighet: 51%
Barometer: 1017.3 hPa
Clouds: Klart
Visibility: 16 km
2019/03/21 00:15 KE16 210015Z AUTO 21012KT 10SM CLR 15/05 A3004 RMK AO2
 
KWVI - Watsonville, California, USA
Distance from station: SSO 44km
Uppdaterad: 2019-03-25 17:53
Klart
Klart
 Vind från SV
Vind: SV 15 km/h
Temperatur: 12°C
Daggpunkt: 8°C
Luftfuktighet: 77%
Barometer: 1021.3 hPa
Clouds: Klart
Visibility: 16 km
2019/03/25 16:53 KWVI 251653Z AUTO 23008KT 10SM CLR 12/08 A3016 RMK AO2 SLP213 T01220083
KHAF - Half Moon Bay, California, USA
Distance from station: VNV 50km
Uppdaterad: 2019-03-25 17:35
Haze, Genommulet
Haze, Genommulet
 Vind från S
Vind: S 35 km/h, Vindby: 50 km/h
Temperatur: 13°C
Daggpunkt: 9°C
Luftfuktighet: 77%
Barometer: 1019.3 hPa
Summering: Haze
Clouds: Genommulet
Visibility: 8 km
Cloud details: Genommulet 732 m
2019/03/25 16:35 KHAF 251635Z AUTO 17019G27KT 5SM HZ OVC024 13/09 A3010 RMK AO2
 
KHWD - Hayward, California, USA
Distance from station: N 44km
Uppdaterad: 2019-03-25 16:54
Genommulet
Genommulet
 Vind från S
Vind: S 28 km/h, Vindby: 39 km/h
Temperatur: 19°C
Daggpunkt: 5°C
Luftfuktighet: 40%
Barometer: 1018.3 hPa
Clouds: Genommulet
Visibility: 16 km
Cloud details: Övervägande molnigt 3048 m
Genommulet 3658 m
2019/03/25 15:54 KHWD 251554Z 17015G21KT 10SM BKN100 OVC120 19/05 A3007 RMK AO2 SLP192 T01890050
KLVK - Livermore, California, USA
Distance from station: NNO 51km
Uppdaterad: 2019-03-25 17:53
Delvis molnigt
Delvis molnigt
 Vind från V
Vind: V 6 km/h
Temperatur: 13°C
Daggpunkt: 7°C
Luftfuktighet: 67%
Barometer: 1019 hPa
Clouds: Delvis molnigt
Visibility: 16 km
Cloud details: Delvis molnigt 2591 m
2019/03/25 16:53 KLVK 251653Z 27003KT 10SM SCT085 13/07 A3009 RMK AO2 SLP189 T01330067